Pagrindinis puslapis
METAR-TAF:

METAR-TAF

Oro uostai :

Ahras, Turkija

platuma: 39-39-16N, ilguma: 43-01-38E, Aukštis: 1665 m

Dabartinis oras

Ataskaita buvo paskelbta 13 valandos ir 47 minutes, ne 13:50 UTC
Vėjas 3 kt iš Pietų, svyruoja nuo Pietryčių ir Pietų/Pietvakarių
Temperatūra 10°C
Drėgmė 71%
Slėgis 1016 hPa
Matomumas: 6000 m

METAR: LTCO 301350Z 18003KT 130V210 6000 NSC 10/05 Q1016

Laikas: 06:37 (03:37 UTC)

Prognozė

Ataskaita buvo paskelbta 1 valandą ir 57 minutes, ne 01:40 UTC
Prognozė galioja nuo 01 metu 03 UTC su 01 metu 12 UTC
Vėjas 12 kt iš Pietvakarių
Matomumas 10 km arba daugiau
Išsisklaidę debesys ne aukštis 3500 ft
Tapsmas
nuo 01 metu 03 UTC su 01 metu 06 UTC
Su prošvaistėmis ne aukštis 2500 ft
Su prošvaistėmis ne aukštis 7000 ft
Laikinai
nuo 01 metu 06 UTC su 01 metu 09 UTC
lietus, sniegas
Laikinai
nuo 01 metu 09 UTC su 01 metu 12 UTC
Matomumas: 4000 m
sniegas, Sniego pustymas

TAF: LTCO 010140Z 0103/0112 23012KT 9999 SCT035 BECMG 0103/0106 BKN025 BKN070 TEMPO 0106/0109 -RASN TEMPO 0109/0112 4000 -SN BLSN

Orai ataskaitas ir orų prognozės (METAR, TAF).

turimą stotys yra geltonos ir raudonos taškus žemėlapyje.

Perkelti pele per norėdami pamatyti stoties vardą.

Tada spustelėkite, norėdami matyti oro stebėjimo ir prognozės.

Norėdami pakeisti žemėlapį: spustelėkite ant žalios mygtukų su juodo kryžiaus žemyn,; žalią mygtuką su brūkšneliu, jei norite nutolinti; arba žalių rodyklių gretimoms žemėlapius.


METAR-TAF: